Time;durP1;ratioP1;P1;durP2;ratioP2;P2;SDS_P1;SDS_P2;PMS_P1;PMS_P2;Temp;Humidity;BMP_temperature;BMP_pressure;BME280_temperature;BME280_humidity;BME280_pressure;Samples;Min_cycle;Max_cycle;Signal;HPM_P1;HPM_P2
2021/08/28 00:00:51;;;;;;;26.55;17.25;;;;;;;19.27;100.00;97239.38;5055489;28;20385;-75
2021/08/28 00:03:22;;;;;;;27.00;17.27;;;;;;;19.35;100.00;97255.72;5073637;28;20030;-75
2021/08/28 00:05:49;;;;;;;29.60;17.63;;;;;;;19.11;100.00;97237.38;5055675;28;20028;-76
2021/08/28 00:08:15;;;;;;;29.02;17.55;;;;;;;19.16;100.00;97266.75;5055589;28;20769;-76
2021/08/28 00:10:41;;;;;;;25.35;16.52;;;;;;;19.13;100.00;97251.66;5052172;28;20106;-75
2021/08/28 00:13:08;;;;;;;25.60;16.83;;;;;;;19.12;100.00;97243.66;5041219;28;20119;-75
2021/08/28 00:15:33;;;;;;;24.42;16.75;;;;;;;19.12;100.00;97259.94;5055418;28;20032;-76
2021/08/28 00:17:59;;;;;;;28.20;17.80;;;;;;;19.05;100.00;97247.97;5055577;28;20028;-75
2021/08/28 00:20:25;;;;;;;24.80;16.40;;;;;;;19.08;98.76;97240.41;5052213;28;20399;-75
2021/08/28 00:22:50;;;;;;;28.73;15.43;;;;;;;19.17;96.66;97244.88;5046279;28;20025;-76
2021/08/28 00:25:16;;;;;;;23.65;15.40;;;;;;;19.18;98.55;97253.88;5038688;28;20058;-75
2021/08/28 00:27:42;;;;;;;25.92;16.00;;;;;;;19.09;99.55;97247.53;5038478;28;20056;-75
2021/08/28 00:30:09;;;;;;;24.38;16.83;;;;;;;19.18;100.00;97259.31;5037860;28;20093;-75
2021/08/28 00:32:35;;;;;;;24.08;15.98;;;;;;;19.18;100.00;97265.59;5054922;28;20016;-75
2021/08/28 00:35:01;;;;;;;21.95;14.65;;;;;;;18.98;94.57;97258.59;5055263;28;20024;-76
2021/08/28 00:37:26;;;;;;;23.17;15.70;;;;;;;19.08;95.24;97262.09;5035071;28;20579;-75
2021/08/28 00:39:52;;;;;;;20.98;13.30;;;;;;;19.04;93.65;97259.88;5063726;28;20056;-75
2021/08/28 00:42:17;;;;;;;16.77;12.27;;;;;;;18.92;91.96;97246.50;5051813;28;20549;-75
2021/08/28 00:44:44;;;;;;;22.48;13.50;;;;;;;18.83;95.21;97247.44;5052857;28;20020;-76
2021/08/28 00:47:14;;;;;;;19.92;12.63;;;;;;;18.94;93.35;97258.06;5054931;28;20035;-75
2021/08/28 00:49:39;;;;;;;18.20;11.70;;;;;;;18.86;89.31;97255.25;5054731;28;20043;-75
2021/08/28 00:52:06;;;;;;;20.48;11.93;;;;;;;18.86;92.85;97249.84;5072669;28;20024;-75
2021/08/28 00:54:35;;;;;;;17.10;11.88;;;;;;;18.95;90.78;97265.19;5051833;28;20032;-75
2021/08/28 00:57:02;;;;;;;19.45;11.88;;;;;;;18.93;89.33;97264.50;5037985;28;20029;-75
2021/08/28 00:59:27;;;;;;;19.27;12.57;;;;;;;18.90;90.80;97262.09;5054822;28;20100;-75
2021/08/28 01:01:53;;;;;;;16.33;11.40;;;;;;;18.98;92.84;97274.84;5054392;28;20119;-75
2021/08/28 01:04:20;;;;;;;18.33;12.02;;;;;;;19.00;92.55;97272.00;5072498;28;20027;-75
2021/08/28 01:07:04;;;;;;;18.98;11.88;;;;;;;18.96;91.24;97263.31;5037808;28;20035;-75
2021/08/28 01:09:36;;;;;;;17.77;11.75;;;;;;;18.97;88.67;97253.34;5037613;28;20049;-75
2021/08/28 01:12:07;;;;;;;17.27;12.02;;;;;;;19.13;89.11;97280.63;5054310;28;20020;-75
2021/08/28 01:14:34;;;;;;;16.20;11.88;;;;;;;19.09;91.06;97282.78;5051142;28;20402;-75
2021/08/28 01:17:06;;;;;;;19.20;12.63;;;;;;;19.04;92.32;97286.97;5020532;28;20033;-75
2021/08/28 01:19:35;;;;;;;17.38;12.10;;;;;;;19.04;90.58;97285.09;5037703;28;20028;-75
2021/08/28 01:22:06;;;;;;;16.98;12.20;;;;;;;19.07;92.89;97284.81;5071926;28;20032;-76
2021/08/28 01:24:33;;;;;;;21.60;13.02;;;;;;;18.95;93.71;97278.72;5072029;28;20025;-75
2021/08/28 01:27:14;;;;;;;21.50;13.13;;;;;;;18.90;94.29;97266.66;5050842;28;20032;-76
2021/08/28 01:29:40;;;;;;;19.63;12.82;;;;;;;18.93;92.17;97278.03;5030240;28;20123;-75
2021/08/28 01:32:07;;;;;;;18.73;12.00;;;;;;;18.91;91.76;97274.66;5053168;28;20086;-75
2021/08/28 01:34:32;;;;;;;22.33;12.20;;;;;;;18.97;87.39;97277.75;5050942;28;20428;-75
2021/08/28 01:36:58;;;;;;;18.65;13.02;;;;;;;18.87;93.34;97266.97;5024297;28;20029;-76
2021/08/28 01:39:24;;;;;;;18.88;12.57;;;;;;;18.79;93.51;97254.19;5047791;28;20032;-75
2021/08/28 01:41:58;;;;;;;18.02;12.30;;;;;;;18.84;94.45;97272.69;5053496;28;20040;-75
2021/08/28 01:44:24;;;;;;;18.65;12.98;;;;;;;18.77;94.20;97264.31;5053937;28;20085;-75
2021/08/28 01:46:50;;;;;;;22.85;12.65;;;;;;;18.69;91.52;97257.94;5050500;28;20039;-75
2021/08/28 01:49:16;;;;;;;23.60;14.23;;;;;;;18.68;94.23;97270.66;5045823;28;20107;-75
2021/08/28 01:51:43;;;;;;;20.95;12.75;;;;;;;18.73;89.35;97275.63;5050546;28;20396;-76
2021/08/28 01:54:08;;;;;;;19.20;12.32;;;;;;;18.81;90.85;97271.13;5053042;28;20031;-75
2021/08/28 01:56:34;;;;;;;19.15;12.25;;;;;;;18.83;88.63;97271.81;5054066;28;20463;-75
2021/08/28 01:59:00;;;;;;;19.10;13.38;;;;;;;18.83;90.23;97269.13;5051628;28;20400;-75
2021/08/28 02:01:30;;;;;;;20.52;12.90;;;;;;;18.79;92.95;97265.03;5053969;28;20026;-75
2021/08/28 02:03:55;;;;;;;20.80;13.25;;;;;;;18.87;89.58;97261.53;5071607;28;20028;-75
2021/08/28 02:06:36;;;;;;;18.80;12.95;;;;;;;18.92;87.95;97272.75;5033711;28;20032;-76
2021/08/28 02:09:30;;;;;;;21.13;12.57;;;;;;;18.89;87.73;97268.50;5069113;28;20114;-75
2021/08/28 02:12:02;;;;;;;17.98;12.52;;;;;;;18.95;86.73;97270.59;5068223;28;20476;-76
2021/08/28 02:14:38;;;;;;;19.58;12.20;;;;;;;18.95;86.74;97281.44;5037059;28;20070;-75
2021/08/28 02:17:07;;;;;;;21.20;13.23;;;;;;;18.93;86.69;97274.47;5036835;28;20028;-75
2021/08/28 02:19:35;;;;;;;19.48;13.55;;;;;;;18.93;87.90;97279.91;5053686;28;20024;-75
2021/08/28 02:22:09;;;;;;;21.90;13.88;;;;;;;18.86;88.04;97268.81;5053587;28;20029;-75
2021/08/28 02:24:35;;;;;;;20.77;14.32;;;;;;;18.81;87.77;97267.56;5036959;28;20498;-75
2021/08/28 02:27:12;;;;;;;21.27;14.50;;;;;;;18.68;90.09;97272.50;5053437;28;20028;-75
2021/08/28 02:29:44;;;;;;;21.05;13.85;;;;;;;18.75;91.22;97263.63;5053452;28;20063;-75
2021/08/28 02:32:11;;;;;;;23.25;13.75;;;;;;;18.68;90.55;97257.09;5053258;28;20059;-75
2021/08/28 02:34:38;;;;;;;22.25;14.10;;;;;;;18.63;92.98;97269.41;5053563;28;20082;-75
2021/08/28 02:37:04;;;;;;;22.35;14.45;;;;;;;18.60;92.84;97269.69;5050763;28;20409;-76
2021/08/28 02:39:30;;;;;;;18.80;14.13;;;;;;;18.43;92.53;97258.63;5053484;28;20059;-75
2021/08/28 02:41:57;;;;;;;19.40;14.02;;;;;;;18.37;94.13;97269.22;5053368;28;20025;-76
2021/08/28 02:44:25;;;;;;;21.17;14.48;;;;;;;18.31;97.21;97265.25;5070979;28;20063;-75
2021/08/28 02:46:52;;;;;;;22.98;14.30;;;;;;;18.29;95.66;97266.41;5033243;28;20037;-75
2021/08/28 02:49:18;;;;;;;27.23;14.43;;;;;;;18.30;94.58;97263.53;5032221;28;20576;-75
2021/08/28 02:51:44;;;;;;;22.50;15.32;;;;;;;18.18;97.08;97259.31;5030927;28;20025;-76
2021/08/28 02:54:13;;;;;;;21.13;13.85;;;;;;;18.18;95.27;97259.31;5054372;28;20093;-76
2021/08/28 02:56:40;;;;;;;23.30;14.45;;;;;;;18.25;96.96;97270.41;5057152;28;20039;-76
2021/08/28 02:59:05;;;;;;;30.88;14.15;;;;;;;18.27;96.15;97258.41;5074728;28;20024;-76
2021/08/28 03:01:32;;;;;;;24.27;14.73;;;;;;;18.20;98.83;97251.91;5053722;28;20405;-75
2021/08/28 03:03:58;;;;;;;23.65;14.75;;;;;;;18.24;98.88;97268.72;5049424;28;20028;-75
2021/08/28 03:06:29;;;;;;;23.98;14.77;;;;;;;18.27;99.86;97271.13;5056005;28;20081;-75
2021/08/28 03:08:56;;;;;;;20.98;13.35;;;;;;;18.27;96.15;97273.84;5053391;28;20515;-75
2021/08/28 03:11:21;;;;;;;23.95;14.45;;;;;;;18.22;95.37;97270.72;5038804;28;20067;-75
2021/08/28 03:13:47;;;;;;;21.55;13.15;;;;;;;18.17;96.11;97267.59;5053462;28;20551;-76
2021/08/28 03:16:13;;;;;;;22.38;13.13;;;;;;;18.24;94.11;97276.84;5051753;28;20412;-75
2021/08/28 03:18:40;;;;;;;20.42;12.80;;;;;;;18.21;95.58;97279.84;5053467;28;20408;-75
2021/08/28 03:21:06;;;;;;;20.77;13.25;;;;;;;18.07;95.46;97256.81;5049710;28;20025;-75
2021/08/28 03:23:32;;;;;;;23.00;14.02;;;;;;;17.95;97.21;97246.31;5036458;28;20086;-74
2021/08/28 03:25:59;;;;;;;25.05;14.60;;;;;;;17.95;100.00;97265.25;5054496;28;20024;-74
2021/08/28 03:28:26;;;;;;;24.90;14.68;;;;;;;17.79;100.00;97266.72;5019953;28;20025;-75
2021/08/28 03:30:53;;;;;;;22.67;14.45;;;;;;;17.76;100.00;97268.88;5036920;28;20052;-75
2021/08/28 03:33:20;;;;;;;27.40;14.82;;;;;;;17.81;100.00;97266.59;5063624;28;20090;-75
2021/08/28 03:35:47;;;;;;;25.25;15.10;;;;;;;17.79;100.00;97250.50;5056410;28;20535;-74
2021/08/28 03:38:13;;;;;;;23.88;16.08;;;;;;;17.91;100.00;97271.94;5073966;28;20435;-75
2021/08/28 03:40:39;;;;;;;24.25;15.35;;;;;;;17.98;100.00;97273.09;5039490;28;20424;-74
2021/08/28 03:43:05;;;;;;;26.27;14.93;;;;;;;17.98;100.00;97270.38;5055919;28;20033;-75
2021/08/28 03:45:31;;;;;;;23.83;14.40;;;;;;;18.13;100.00;97277.00;5056032;28;20036;-75
2021/08/28 03:47:57;;;;;;;19.77;13.52;;;;;;;18.19;98.95;97292.66;5036101;28;20032;-75
2021/08/28 03:50:23;;;;;;;21.58;13.65;;;;;;;18.25;98.28;97292.94;5068270;28;20515;-75
2021/08/28 03:52:49;;;;;;;21.15;13.32;;;;;;;18.24;97.33;97291.22;5036019;28;20036;-74
2021/08/28 03:55:14;;;;;;;19.95;12.70;;;;;;;18.30;95.71;97290.63;5044375;28;20028;-75
2021/08/28 03:57:40;;;;;;;23.05;13.23;;;;;;;18.33;94.27;97278.66;5056129;28;20452;-75
2021/08/28 04:00:06;;;;;;;18.60;12.75;;;;;;;18.48;93.45;97298.81;5052846;28;20021;-74
2021/08/28 04:02:32;;;;;;;23.50;13.27;;;;;;;18.45;93.33;97299.13;5037753;28;20029;-74
2021/08/28 04:04:57;;;;;;;25.65;13.57;;;;;;;18.47;92.70;97302.53;5055619;28;20063;-75
2021/08/28 04:07:23;;;;;;;20.05;13.02;;;;;;;18.45;92.60;97304.53;5073620;28;20021;-75
2021/08/28 04:09:49;;;;;;;21.42;14.02;;;;;;;18.36;93.76;97294.59;5052350;28;20119;-75
2021/08/28 04:12:14;;;;;;;22.05;14.57;;;;;;;18.40;93.60;97290.56;5040327;28;20149;-75
2021/08/28 04:14:40;;;;;;;24.60;14.07;;;;;;;18.42;92.26;97303.00;5054693;28;20498;-75
2021/08/28 04:17:05;;;;;;;23.60;14.93;;;;;;;18.36;92.16;97283.78;5073701;28;20509;-75
2021/08/28 04:19:31;;;;;;;20.63;13.50;;;;;;;18.36;91.84;97289.19;5073271;28;20020;-75
2021/08/28 04:21:56;;;;;;;29.98;19.17;;;;;;;18.47;91.76;97307.94;5055616;28;20487;-75
2021/08/28 04:24:22;;;;;;;23.92;13.75;;;;;;;18.49;91.37;97283.44;5055210;28;20431;-75
2021/08/28 04:26:47;;;;;;;29.20;13.23;;;;;;;18.65;91.48;97291.75;5055275;28;20036;-75
2021/08/28 04:29:13;;;;;;;19.67;13.65;;;;;;;18.76;91.07;97306.00;5038615;28;20040;-75
2021/08/28 04:31:39;;;;;;;18.52;12.80;;;;;;;18.79;87.43;97302.13;5051977;28;20028;-75
2021/08/28 04:34:04;;;;;;;19.35;12.23;;;;;;;18.85;86.25;97309.63;5037790;28;20032;-75
2021/08/28 04:36:30;;;;;;;20.60;13.48;;;;;;;18.85;86.30;97312.34;5036059;28;20039;-75
2021/08/28 04:38:55;;;;;;;27.02;13.90;;;;;;;18.81;86.78;97308.22;5055345;28;20074;-75
2021/08/28 04:41:21;;;;;;;27.20;14.23;;;;;;;18.79;86.41;97302.97;5055224;28;20055;-75
2021/08/28 04:43:46;;;;;;;23.10;14.00;;;;;;;18.85;87.97;97313.22;5054755;28;20028;-75
2021/08/28 04:46:12;;;;;;;19.27;13.55;;;;;;;18.79;87.41;97305.69;5072706;28;20024;-75
2021/08/28 04:48:37;;;;;;;24.65;14.38;;;;;;;18.93;87.96;97313.28;5038013;28;20034;-75
2021/08/28 04:51:03;;;;;;;24.77;14.38;;;;;;;19.02;87.50;97318.78;5034967;28;20024;-75
2021/08/28 04:53:29;;;;;;;21.85;13.98;;;;;;;18.91;88.52;97315.31;5052751;28;20516;-76
2021/08/28 04:55:55;;;;;;;20.00;13.82;;;;;;;18.80;89.44;97303.78;5051396;28;20520;-75
2021/08/28 04:58:20;;;;;;;20.63;13.63;;;;;;;18.73;88.94;97300.88;5018467;28;20029;-76
2021/08/28 05:00:46;;;;;;;20.52;14.15;;;;;;;18.77;88.08;97299.53;5025368;28;20036;-75
2021/08/28 05:03:12;;;;;;;20.73;13.65;;;;;;;18.74;89.18;97299.84;5066642;28;20452;-75
2021/08/28 05:05:37;;;;;;;22.48;14.40;;;;;;;18.83;88.53;97298.94;5037540;28;20123;-75
2021/08/28 05:08:03;;;;;;;27.67;15.35;;;;;;;18.99;88.30;97302.81;5050093;28;20029;-74
2021/08/28 05:10:29;;;;;;;20.83;14.43;;;;;;;19.01;87.27;97290.81;5052344;28;20481;-75
2021/08/28 05:12:54;;;;;;;22.80;14.05;;;;;;;19.10;88.72;97300.78;5028918;28;20115;-76
2021/08/28 05:15:20;;;;;;;21.50;15.05;;;;;;;19.06;89.18;97283.09;5037524;28;20475;-74
2021/08/28 05:17:45;;;;;;;29.10;14.85;;;;;;;18.75;91.53;97295.28;5050135;28;20430;-74
2021/08/28 05:20:11;;;;;;;25.70;15.45;;;;;;;18.67;93.17;97296.03;5047746;28;20111;-75
2021/08/28 05:22:37;;;;;;;24.60;15.55;;;;;;;18.72;93.16;97309.13;5072243;28;20020;-74
2021/08/28 05:25:02;;;;;;;26.55;15.90;;;;;;;18.68;92.35;97299.59;5072134;28;20028;-74
2021/08/28 05:27:28;;;;;;;26.63;15.60;;;;;;;18.56;92.77;97295.38;5054344;28;20027;-75
2021/08/28 05:29:55;;;;;;;26.73;17.08;;;;;;;18.57;91.20;97300.66;5053605;28;20158;-76
2021/08/28 05:32:21;;;;;;;22.08;15.15;;;;;;;18.54;92.43;97292.84;5037725;28;20020;-78
2021/08/28 05:34:47;;;;;;;22.67;14.93;;;;;;;18.84;91.31;97295.22;5033767;28;20035;-77
2021/08/28 05:37:13;;;;;;;22.63;14.73;;;;;;;18.92;91.08;97295.31;5054249;28;20024;-82
2021/08/28 05:39:38;;;;;;;26.73;15.73;;;;;;;19.25;89.23;97303.78;5052832;28;20017;-74
2021/08/28 05:42:04;;;;;;;24.48;15.40;;;;;;;19.45;88.18;97287.22;5053260;28;20028;-76
2021/08/28 05:44:30;;;;;;;24.17;15.48;;;;;;;19.88;86.74;97294.53;5037013;28;20046;-75
2021/08/28 05:46:55;;;;;;;41.85;25.95;;;;;;;20.25;81.73;97302.41;5033566;28;20093;-75
2021/08/28 05:49:21;;;;;;;24.52;15.43;;;;;;;20.38;80.65;97297.41;5047910;28;20024;-75
2021/08/28 05:51:46;;;;;;;26.40;16.00;;;;;;;20.45;79.34;97289.47;5071526;28;20024;-74
2021/08/28 05:54:12;;;;;;;24.67;16.13;;;;;;;20.49;80.53;97294.41;5071431;28;20086;-75
2021/08/28 05:56:37;;;;;;;23.27;15.05;;;;;;;20.68;78.66;97285.16;5053431;28;20025;-74
2021/08/28 05:59:03;;;;;;;44.90;22.02;;;;;;;20.83;81.29;97299.81;5071218;28;20025;-74
2021/08/28 06:01:29;;;;;;;36.33;17.98;;;;;;;20.84;80.41;97304.25;5050339;28;20098;-74
2021/08/28 06:03:54;;;;;;;28.77;15.18;;;;;;;20.72;82.05;97297.41;5068051;28;20085;-75
2021/08/28 06:06:20;;;;;;;38.35;22.80;;;;;;;20.80;81.80;97308.28;5049767;28;20033;-75
2021/08/28 06:08:45;;;;;;;38.25;21.00;;;;;;;21.08;79.62;97300.72;5033058;28;20048;-75
2021/08/28 06:11:11;;;;;;;25.00;17.40;;;;;;;21.09;77.68;97288.88;5049308;28;20040;-77
2021/08/28 06:13:36;;;;;;;20.35;14.10;;;;;;;21.11;77.60;97299.56;5047702;28;20020;-75
2021/08/28 06:16:02;;;;;;;32.60;17.75;;;;;;;21.02;79.66;97296.81;5052294;28;20043;-75
2021/08/28 06:18:28;;;;;;;29.95;16.38;;;;;;;21.07;78.95;97285.44;5035887;28;20103;-74
2021/08/28 06:20:53;;;;;;;23.42;14.02;;;;;;;20.92;77.81;97293.38;5050275;28;20151;-75
2021/08/28 06:23:19;;;;;;;19.10;13.40;;;;;;;21.10;77.64;97303.34;5052350;28;20098;-75
2021/08/28 06:25:44;;;;;;;21.48;12.82;;;;;;;21.45;76.05;97305.75;5049234;28;20021;-75
2021/08/28 06:28:10;;;;;;;19.88;11.40;;;;;;;21.54;72.38;97294.72;5069895;28;20047;-75
2021/08/28 06:30:36;;;;;;;18.17;10.88;;;;;;;21.90;70.67;97297.97;5036370;28;20017;-75
2021/08/28 06:33:02;;;;;;;20.88;13.40;;;;;;;21.94;69.08;97307.50;5036800;28;20127;-74
2021/08/28 06:35:28;;;;;;;18.13;9.77;;;;;;;22.18;66.62;97289.44;5056634;28;20509;-75
2021/08/28 06:37:54;;;;;;;22.25;9.35;;;;;;;23.14;62.14;97308.19;5056268;28;20028;-75
2021/08/28 06:40:19;;;;;;;15.90;8.85;;;;;;;23.61;61.19;97299.03;5056122;28;20062;-75
2021/08/28 06:42:45;;;;;;;21.42;14.48;;;;;;;23.87;59.98;97304.97;5056458;28;20104;-75
2021/08/28 06:45:10;;;;;;;17.85;10.10;;;;;;;23.40;60.94;97296.13;5055475;28;20035;-75
2021/08/28 06:47:36;;;;;;;13.27;9.05;;;;;;;22.39;64.81;97306.09;5056219;28;20028;-74
2021/08/28 06:50:02;;;;;;;18.95;10.35;;;;;;;22.20;67.11;97287.38;5037533;28;20028;-75
2021/08/28 06:52:28;;;;;;;15.85;10.18;;;;;;;22.01;68.22;97303.09;5049232;28;20462;-74
2021/08/28 06:54:53;;;;;;;18.00;10.27;;;;;;;22.23;68.19;97298.78;5056951;28;20024;-74
2021/08/28 06:57:19;;;;;;;18.00;9.05;;;;;;;22.49;66.53;97293.09;5036353;28;20036;-75
2021/08/28 06:59:44;;;;;;;17.65;10.27;;;;;;;22.13;66.64;97301.69;5047341;28;20059;-74
2021/08/28 07:02:10;;;;;;;14.63;10.27;;;;;;;23.08;64.17;97297.97;5022349;28;20060;-75
2021/08/28 07:04:35;;;;;;;15.18;10.18;;;;;;;24.05;58.69;97289.09;5056206;28;20031;-76
2021/08/28 07:07:01;;;;;;;13.20;9.43;;;;;;;23.83;57.74;97297.31;5039343;28;20408;-74
2021/08/28 07:09:26;;;;;;;17.40;10.65;;;;;;;23.50;60.32;97302.19;5055495;28;20080;-75
2021/08/28 07:11:52;;;;;;;14.15;10.15;;;;;;;23.37;59.21;97307.38;5056006;28;20089;-74
2021/08/28 07:14:18;;;;;;;16.02;10.18;;;;;;;22.54;61.90;97313.38;5073714;28;20087;-75
2021/08/28 07:16:43;;;;;;;17.95;10.45;;;;;;;22.47;63.24;97300.59;5052833;28;20033;-75
2021/08/28 07:19:09;;;;;;;29.13;17.45;;;;;;;22.33;64.61;97298.59;5053902;28;20601;-76
2021/08/28 07:21:34;;;;;;;23.67;16.77;;;;;;;22.57;62.08;97288.47;5055646;28;20062;-75
2021/08/28 07:24:00;;;;;;;13.38;9.13;;;;;;;22.49;62.07;97290.34;5073625;28;20178;-74
2021/08/28 07:26:26;;;;;;;19.80;13.18;;;;;;;23.10;60.93;97295.91;5073485;28;20037;-74
2021/08/28 07:28:52;;;;;;;14.85;11.15;;;;;;;23.92;57.00;97286.16;5055364;28;20123;-75
2021/08/28 07:31:17;;;;;;;17.88;10.10;;;;;;;24.07;55.68;97291.63;5054268;28;20036;-76
2021/08/28 07:33:43;;;;;;;17.80;9.63;;;;;;;24.96;52.52;97299.75;5055432;28;20032;-75
2021/08/28 07:36:08;;;;;;;13.65;9.05;;;;;;;25.23;52.28;97279.00;5073126;28;20032;-76
2021/08/28 07:38:34;;;;;;;39.50;27.25;;;;;;;25.90;50.59;97276.81;5051776;28;20021;-76
2021/08/28 07:40:59;;;;;;;14.95;9.75;;;;;;;26.72;47.18;97271.50;5050565;28;20029;-76
2021/08/28 07:43:25;;;;;;;17.63;10.38;;;;;;;26.61;48.19;97272.09;5055387;28;20028;-76
2021/08/28 07:45:51;;;;;;;12.77;9.02;;;;;;;27.43;46.68;97271.03;5055500;28;20050;-75
2021/08/28 07:48:16;;;;;;;25.27;10.70;;;;;;;28.53;44.68;97271.31;5073110;28;20067;-77
2021/08/28 07:50:42;;;;;;;18.00;10.00;;;;;;;28.86;42.49;97262.16;5052013;28;20036;-76
2021/08/28 07:53:07;;;;;;;12.23;9.55;;;;;;;29.10;42.25;97263.34;5051727;28;20037;-76
2021/08/28 07:55:33;;;;;;;12.45;9.90;;;;;;;28.11;43.50;97259.94;5038686;28;20431;-76
2021/08/28 07:57:59;;;;;;;13.98;10.07;;;;;;;27.31;45.04;97269.91;5055531;28;20036;-75
2021/08/28 08:00:24;;;;;;;29.92;9.75;;;;;;;27.51;45.59;97275.47;5038472;28;20040;-75
2021/08/28 08:02:50;;;;;;;12.77;9.70;;;;;;;27.53;45.11;97245.06;5051579;28;20035;-74
2021/08/28 08:05:15;;;;;;;28.40;9.65;;;;;;;27.92;44.43;97231.34;5048543;28;20491;-75
2021/08/28 08:07:41;;;;;;;13.63;9.60;;;;;;;28.45;42.66;97218.41;5054847;28;20060;-76
2021/08/28 08:10:07;;;;;;;18.33;9.73;;;;;;;29.01;40.86;97225.00;5072804;28;20052;-76
2021/08/28 08:12:33;;;;;;;13.52;9.45;;;;;;;30.62;38.55;97221.53;5037698;28;20028;-75
2021/08/28 08:15:00;;;;;;;11.00;8.55;;;;;;;31.61;37.14;97212.88;5055136;28;20055;-75
2021/08/28 08:17:26;;;;;;;12.35;8.80;;;;;;;31.56;37.14;97214.66;5052774;28;20048;-76
2021/08/28 08:19:52;;;;;;;15.00;9.35;;;;;;;32.00;35.88;97205.00;5072500;28;20032;-75
2021/08/28 08:22:21;;;;;;;14.55;9.60;;;;;;;32.11;35.76;97206.97;5038107;28;20535;-76
2021/08/28 08:24:47;;;;;;;13.07;9.65;;;;;;;32.97;33.99;97206.22;5062731;28;20534;-76
2021/08/28 08:27:12;;;;;;;20.52;15.43;;;;;;;33.09;33.98;97204.28;5025189;28;20107;-75
2021/08/28 08:29:38;;;;;;;17.40;9.20;;;;;;;33.05;34.17;97203.06;5053249;28;20127;-74
2021/08/28 08:32:04;;;;;;;28.17;10.82;;;;;;;33.22;33.67;97195.69;5073258;28;20043;-75
2021/08/28 08:34:29;;;;;;;14.50;9.48;;;;;;;33.56;32.46;97183.56;5037812;28;20435;-75
2021/08/28 08:36:55;;;;;;;39.05;30.80;;;;;;;30.49;37.16;97207.00;5066102;28;20106;-77
2021/08/28 08:39:20;;;;;;;15.65;12.68;;;;;;;32.15;35.37;97205.41;5054946;28;20057;-76
2021/08/28 08:41:46;;;;;;;12.20;9.02;;;;;;;32.41;34.84;97188.31;5053805;28;20072;-76
2021/08/28 08:44:13;;;;;;;18.38;9.50;;;;;;;33.17;33.59;97190.03;5051558;28;20059;-76
2021/08/28 08:46:39;;;;;;;11.63;9.43;;;;;;;31.25;35.84;97196.34;5045666;28;20032;-76
2021/08/28 08:49:06;;;;;;;12.18;9.55;;;;;;;32.34;34.00;97186.75;5049959;28;20476;-76
2021/08/28 08:51:35;;;;;;;12.73;8.40;;;;;;;32.55;34.26;97183.34;5051891;28;20067;-76
2021/08/28 08:54:05;;;;;;;11.45;9.02;;;;;;;33.71;32.29;97169.19;5071355;28;20040;-76
2021/08/28 08:56:35;;;;;;;10.82;9.07;;;;;;;33.85;32.12;97170.53;5037696;28;20032;-76
2021/08/28 08:59:01;;;;;;;10.02;8.80;;;;;;;33.50;32.15;97158.78;5028969;28;20029;-76
2021/08/28 09:01:27;;;;;;;13.35;8.90;;;;;;;34.22;31.69;97155.09;5068085;28;20035;-76
2021/08/28 09:03:54;;;;;;;13.27;8.93;;;;;;;34.55;31.61;97165.28;5072063;28;21087;-76
2021/08/28 09:06:20;;;;;;;12.32;8.32;;;;;;;34.69;30.99;97166.66;5072153;28;20115;-76
2021/08/28 09:08:45;;;;;;;10.80;8.98;;;;;;;34.78;30.83;97153.13;5050000;28;20123;-76
2021/08/28 09:11:30;;;;;;;11.25;9.40;;;;;;;35.82;29.68;97151.84;5030359;28;20535;-76
2021/08/28 09:14:18;;;;;;;11.20;9.15;;;;;;;35.47;29.13;97129.19;5023212;28;20045;-76
2021/08/28 09:16:44;;;;;;;11.85;9.65;;;;;;;32.48;33.78;97141.13;5049215;28;20041;-76
2021/08/28 09:19:10;;;;;;;15.07;9.93;;;;;;;32.86;33.33;97143.31;5050164;28;20389;-75
2021/08/28 09:21:36;;;;;;;10.27;8.43;;;;;;;33.91;31.68;97129.81;5046804;28;20036;-76
2021/08/28 09:24:05;;;;;;;12.00;9.25;;;;;;;33.60;31.84;97128.47;5041905;28;20020;-76
2021/08/28 09:26:48;;;;;;;15.80;9.48;;;;;;;34.22;31.31;97118.97;5050510;28;20021;-76
2021/08/28 09:29:17;;;;;;;12.38;8.93;;;;;;;35.85;29.43;97115.13;5033794;28;20031;-77
2021/08/28 09:31:50;;;;;;;10.98;8.60;;;;;;;36.82;28.03;97113.84;5048979;28;20127;-76
2021/08/28 09:34:33;;;;;;;11.90;9.10;;;;;;;36.36;28.32;97110.78;5042304;28;20481;-75
2021/08/28 09:37:00;;;;;;;12.93;8.90;;;;;;;36.30;28.13;97105.47;5038082;28;20029;-76
2021/08/28 09:39:39;;;;;;;13.15;8.68;;;;;;;35.29;29.57;97099.81;5027069;28;20032;-75
2021/08/28 09:42:05;;;;;;;11.20;8.50;;;;;;;35.82;29.61;97123.16;5050241;28;20048;-76
2021/08/28 09:44:44;;;;;;;11.43;8.30;;;;;;;35.54;29.41;97101.16;5034055;28;20036;-76
2021/08/28 09:47:18;;;;;;;11.32;8.43;;;;;;;36.19;28.60;97087.81;5050409;28;20452;-76
2021/08/28 09:49:46;;;;;;;8.77;7.82;;;;;;;36.00;29.21;97094.06;5050724;28;20028;-76
2021/08/28 09:52:13;;;;;;;9.98;8.43;;;;;;;35.85;29.45;97087.28;5051673;28;20040;-75
2021/08/28 09:54:40;;;;;;;11.82;8.43;;;;;;;34.55;30.74;97106.94;5050336;28;20404;-76
2021/08/28 09:57:06;;;;;;;11.23;8.65;;;;;;;34.63;31.13;97112.09;5048781;28;20479;-76
2021/08/28 09:59:31;;;;;;;11.60;8.95;;;;;;;33.99;32.06;97101.66;5030516;28;20034;-76
2021/08/28 10:01:57;;;;;;;10.50;8.05;;;;;;;33.44;32.47;97077.38;5040129;28;20079;-78
2021/08/28 10:04:22;;;;;;;12.18;7.60;;;;;;;34.06;32.73;97093.94;5046749;28;20021;-75
2021/08/28 10:06:49;;;;;;;11.18;8.82;;;;;;;35.02;31.41;97092.53;5047317;28;20499;-75
2021/08/28 10:09:17;;;;;;;12.32;7.93;;;;;;;35.64;30.39;97084.59;5049419;28;20567;-74
2021/08/28 10:11:48;;;;;;;9.25;7.72;;;;;;;35.71;30.32;97085.22;5051833;28;20021;-75
2021/08/28 10:14:16;;;;;;;9.93;7.88;;;;;;;35.63;31.25;97088.47;5058601;28;20116;-74
2021/08/28 10:16:44;;;;;;;9.45;7.53;;;;;;;35.95;30.71;97072.59;5033711;28;20037;-75
2021/08/28 10:19:15;;;;;;;9.18;7.53;;;;;;;35.94;30.76;97067.28;5048682;28;20083;-78
2021/08/28 10:21:46;;;;;;;10.43;7.57;;;;;;;36.38;30.00;97063.97;5050461;28;20108;-76
2021/08/28 10:24:15;;;;;;;;;;;;;;;36.83;29.77;97070.88;5032505;28;20034;-75
2021/08/28 10:26:42;;;;;;;14.68;6.88;;;;;;;36.65;29.75;97071.38;5047128;28;19913;-76
2021/08/28 10:29:08;;;;;;;10.82;6.97;;;;;;;36.89;28.89;97067.00;5044601;28;20025;-75
2021/08/28 10:31:34;;;;;;;8.15;7.10;;;;;;;37.49;28.52;97057.16;5040235;28;20025;-75
2021/08/28 10:34:00;;;;;;;8.27;7.28;;;;;;;37.62;28.61;97063.03;5030147;28;20025;-76
2021/08/28 10:36:26;;;;;;;10.85;8.40;;;;;;;37.10;29.55;97073.53;5030518;28;20393;-75
2021/08/28 10:38:51;;;;;;;10.07;7.22;;;;;;;36.02;30.68;97078.78;5030261;28;20037;-76
2021/08/28 10:41:18;;;;;;;15.18;7.80;;;;;;;36.46;29.97;97070.13;5039617;28;20551;-76
2021/08/28 10:43:44;;;;;;;10.55;7.35;;;;;;;37.11;29.73;97070.44;5046787;28;20103;-76
2021/08/28 10:46:20;;;;;;;9.13;7.53;;;;;;;36.07;30.90;97069.63;5019744;28;20386;-76
2021/08/28 10:48:54;;;;;;;12.52;6.97;;;;;;;37.27;29.26;97068.53;5013800;28;20458;-76
2021/08/28 10:51:33;;;;;;;7.35;6.32;;;;;;;37.32;29.27;97061.00;5016080;28;20033;-76
2021/08/28 10:54:10;;;;;;;11.07;7.18;;;;;;;37.10;29.12;97060.38;5050038;28;20457;-76
2021/08/28 10:56:56;;;;;;;13.23;10.57;;;;;;;37.48;29.00;97056.31;5049898;28;20103;-75
2021/08/28 10:59:22;;;;;;;9.88;6.88;;;;;;;36.87;29.65;97061.72;5046575;28;20025;-76
2021/08/28 11:01:51;;;;;;;8.20;6.90;;;;;;;36.32;30.44;97064.22;5031567;28;20032;-76
2021/08/28 11:04:29;;;;;;;18.67;7.30;;;;;;;35.63;31.22;97061.47;5029912;28;20022;-76
2021/08/28 11:07:19;;;;;;;11.30;6.88;;;;;;;36.61;30.13;97056.31;5031346;28;20432;-76
2021/08/28 11:10:09;;;;;;;8.55;6.68;;;;;;;37.10;29.01;97060.38;5051239;28;20036;-76
2021/08/28 11:13:03;;;;;;;9.55;6.78;;;;;;;36.24;29.95;97056.38;5052963;28;20095;-75
2021/08/28 11:15:31;;;;;;;11.82;6.95;;;;;;;35.33;30.96;97055.59;5054837;28;20078;-75
2021/08/28 11:18:06;;;;;;;8.57;6.53;;;;;;;35.08;31.83;97058.94;5074797;28;20450;-76
2021/08/28 11:20:35;;;;;;;12.43;7.03;;;;;;;36.23;29.92;97055.53;5056856;28;20058;-75